Terminal Aerodrome Forecast
Issued by NWS

Home | Current Version | Previous Version | Text Only | Print | Product List | Glossary On
Versions: 1 2 3 4 5 6 7 8 9 10 11 12 13 14 15
715
FTUS42 TJSJ 171141
TAFJPS
TAF
TJPS 171141Z 1712/1812 08010G15KT P6SM FEW030
     FM171500 10012G18KT P6SM VCSH SCT030 SCT060
     FM172300 08012KT P6SM VCSH SCT030 BKN060
      AMD NOT SKED TIL 180300=

USA.gov is the U.S. government's official web portal to all federal, state and local government web resources and services.